This is the latest recevied weather packets stored in our database for station/object SP6TSE-13. If no packets are shown the sender has not sent any weather packets the latest 10 day(s).
| Time | Temp. | Humidity | Pressure | Rain* | Wind** | Luminosity | Snow |
|---|---|---|---|---|---|---|---|
| 1777459974 | 10° C | 31% | 1004.4 hPa | - | - | 0 W/m² | - |
| 1777459375 | 10° C | 31% | 1004.4 hPa | - | - | 0 W/m² | - |
| 1777453974 | 7.22° C | 37% | 1004.6 hPa | - | - | 0 W/m² | - |
| 1777451574 | 7.22° C | 37% | 1004.6 hPa | - | - | 0 W/m² | - |
| 1777443174 | 1.67° C | 74% | 1003.4 hPa | - | - | 0 W/m² | - |
| 1777440774 | 1.67° C | 74% | 1003.4 hPa | - | - | 0 W/m² | - |
| 1777432975 | 0° C | 84% | 1002.3 hPa | - | - | 0 W/m² | - |
| 1777432374 | 0° C | 84% | 1002.3 hPa | - | - | 0 W/m² | - |
| 1777429975 | 0° C | 84% | 1002.3 hPa | - | - | 0 W/m² | - |
| 1777429375 | 0° C | 84% | 1002.3 hPa | - | - | 0 W/m² | - |
| 1777428174 | 0.56° C | 71% | 1001.5 hPa | - | - | 0 W/m² | - |
| 1777425174 | 0.56° C | 71% | 1001.5 hPa | - | - | 0 W/m² | - |
| 1777423374 | 1.11° C | 67% | 1000.9 hPa | - | - | 0 W/m² | - |
| 1777421575 | 1.11° C | 67% | 1000.9 hPa | - | - | 0 W/m² | - |
| 1777416175 | 1.11° C | 70% | 1000.9 hPa | - | - | 0 W/m² | - |
| 1777414974 | 1.11° C | 70% | 1000.9 hPa | - | - | 0 W/m² | - |
| 1777411974 | 13.89° C | 29% | 999.1 hPa | - | - | 0 W/m² | - |
| 1777411375 | 13.89° C | 29% | 999.1 hPa | - | - | 0 W/m² | - |
| 1777408974 | 13.89° C | 29% | 999.1 hPa | - | - | 0 W/m² | - |
| 1777399375 | 13.89° C | 29% | 999.1 hPa | - | - | 0 W/m² | - |
| 1777398175 | 13.89° C | 29% | 999.1 hPa | - | - | 0 W/m² | - |
| 1777388574 | 13.89° C | 28% | 999.9 hPa | - | - | 0 W/m² | - |
| 1777385574 | 13.89° C | 28% | 999.9 hPa | - | - | 0 W/m² | - |
| 1777381974 | 13.89° C | 28% | 999.9 hPa | - | - | 0 W/m² | - |
| 1777378975 | 14.44° C | 28% | 1000 hPa | - | - | 0 W/m² | - |
* Rain since midnight (hover to see other rain measurements)
** Current wind speed in m/s (hover to see current wind gust speed)